< < Back
Terminal Aerodrome Forecast


Current Version              Previous Versions:   1  2  3  4  5  6  7  8  9  

Terminal Aerodrome Forecast

234
FTUS42 KTAE 102320
TAFABY
TAF
KABY 102320Z 1100/1124 28006KT P6SM SKC
     FM111500 20005G12KT P6SM SKC=



Latest METAR

234
SAUS70 KWBC 111700 RRA
MTRABY
METAR KABY 111653Z 25008G15KT 10SM CLR 16/03 A3022 RMK AO2 SLP235
T01610033


USA.gov is the U.S. government's official web portal to all federal, state and local government web resources and services.